»·PEaware :: N946S KIFP-KJTC

N946S :: KIFP-KJTC

FLIGHT INFORMATION

Flight Status: Arrived
Operator: Privately registered:
United States
More flights under this callsign
Pilot: Ethan S. (29221)
Aircraft: SOCATA TBM-900
(TBM9)
More flights by this aircraft type
Origin: KIFP Laughlin/Bullhead Intl
United States
Destination: KJTC Springerville Municipal
United States
More flights between these airports :: More routes between these airports
Route: EED DRK VERNO
File this flight plan on PilotEdge
Remarks:
Altitude:
(Current/Filed)
31,000ft
Speed:
(Current/Filed)
320kts
Departed: 04-Oct-20 07:46 PM
Arrived: 04-Oct-20 08:51 PM
Distance/Time
Traveled:
266nm/1:05
Distance/Time
To Go:
Arrived

Flight Plot

Page will automatically refresh every two minutes.

Flight plan parsing failed; only flown route is shown


Map Options




Map Legend


Flown Route
Filed Route
Departure Airport
Arrival Airport
Navaid (VOR, NDB)
Fix

Horizontal Profiles

Position Reports

Time Latitude Longitude Heading Altitude Ground
Speed
04-Oct-20 19:12 35.157264 -114.556331 267 704ft 0kts
04-Oct-20 19:13 35.157264 -114.556331 267 704ft 0kts
04-Oct-20 19:14 35.157264 -114.556331 267 704ft 0kts
04-Oct-20 19:15 35.157264 -114.556331 267 704ft 0kts
04-Oct-20 19:16 35.157264 -114.556331 267 704ft 0kts
04-Oct-20 19:17 35.157264 -114.556331 267 704ft 0kts
04-Oct-20 19:18 35.157264 -114.556331 267 704ft 0kts
04-Oct-20 19:19 35.157264 -114.556331 267 704ft 0kts
04-Oct-20 19:20 35.157264 -114.556331 267 704ft 0kts
04-Oct-20 19:21 35.157264 -114.556331 267 704ft 0kts
04-Oct-20 19:22 35.157264 -114.556331 267 704ft 0kts
04-Oct-20 19:23 35.157264 -114.556331 267 704ft 0kts
04-Oct-20 19:24 35.157264 -114.556331 267 704ft 0kts
04-Oct-20 19:25 35.157264 -114.556331 267 704ft 0kts
04-Oct-20 19:26 35.157264 -114.556331 267 704ft 0kts
04-Oct-20 19:27 35.157264 -114.556331 267 704ft 0kts
04-Oct-20 19:28 35.157264 -114.556331 267 704ft 0kts
04-Oct-20 19:29 35.157264 -114.556331 267 704ft 0kts
04-Oct-20 19:30 35.157264 -114.556331 267 704ft 0kts
04-Oct-20 19:31 35.157264 -114.556331 267 704ft 0kts
04-Oct-20 19:32 35.157264 -114.556331 267 704ft 0kts
04-Oct-20 19:33 35.157264 -114.556331 267 704ft 0kts
04-Oct-20 19:34 35.157264 -114.556331 267 704ft 0kts
04-Oct-20 19:35 35.157264 -114.556331 267 704ft 0kts
04-Oct-20 19:36 35.157264 -114.556331 267 704ft 0kts
04-Oct-20 19:37 35.157264 -114.556331 267 704ft 0kts
04-Oct-20 19:38 35.157264 -114.556331 267 704ft 0kts
04-Oct-20 19:39 35.157264 -114.556331 267 704ft 0kts
04-Oct-20 19:40 35.156409 -114.556392 176 704ft 15kts
04-Oct-20 19:41 35.159712 -114.558311 356 704ft 26kts
04-Oct-20 19:42 35.165255 -114.558744 357 704ft 14kts
04-Oct-20 19:43 35.166207 -114.559217 272 704ft 0kts
04-Oct-20 19:44 35.166144 -114.559979 243 704ft 1kts
04-Oct-20 19:45 35.149502 -114.559307 178 1036ft 130kts
04-Oct-20 19:46 35.110302 -114.557290 175 3399ft 140kts
04-Oct-20 19:47 35.070504 -114.555749 179 5450ft 147kts
04-Oct-20 19:48 35.025096 -114.548916 169 7373ft 190kts
04-Oct-20 19:49 34.982414 -114.536978 169 10658ft 149kts
04-Oct-20 19:50 34.940968 -114.524950 169 13289ft 153kts
04-Oct-20 19:51 34.898750 -114.512693 168 15867ft 157kts
04-Oct-20 19:52 34.855777 -114.500177 168 18275ft 161kts
04-Oct-20 19:53 34.810965 -114.487149 169 20486ft 171kts
04-Oct-20 19:54 34.767147 -114.465848 116 22961ft 191kts
04-Oct-20 19:55 34.763729 -114.380534 93 23027ft 282kts
04-Oct-20 19:56 34.761211 -114.276932 93 22956ft 301kts
04-Oct-20 19:57 34.758535 -114.173172 93 22964ft 302kts
04-Oct-20 19:58 34.756270 -114.087513 94 26619ft 203kts
04-Oct-20 19:59 34.754330 -114.017796 94 28918ft 212kts
04-Oct-20 20:00 34.752287 -113.944085 93 30873ft 221kts
04-Oct-20 20:01 34.749778 -113.855630 93 31107ft 288kts
04-Oct-20 20:02 34.746783 -113.752016 93 31151ft 313kts
04-Oct-20 20:03 34.743513 -113.642923 93 31151ft 324kts
04-Oct-20 20:04 34.740087 -113.531875 93 31148ft 325kts
04-Oct-20 20:05 34.736503 -113.419379 92 31148ft 325kts
04-Oct-20 20:06 34.732852 -113.307921 93 31145ft 325kts
04-Oct-20 20:07 34.729106 -113.196641 93 31176ft 324kts
04-Oct-20 20:08 34.725268 -113.085715 93 31227ft 324kts
04-Oct-20 20:09 34.721336 -112.974857 93 31258ft 324kts
04-Oct-20 20:10 34.717293 -112.863789 93 31257ft 323kts
04-Oct-20 20:11 34.713169 -112.753271 93 31256ft 322kts
04-Oct-20 20:12 34.708954 -112.642988 93 31257ft 321kts
04-Oct-20 20:13 34.704668 -112.533414 93 31257ft 321kts
04-Oct-20 20:14 34.694601 -112.424802 100 31257ft 319kts
04-Oct-20 20:15 34.679190 -112.317130 101 31255ft 319kts
04-Oct-20 20:16 34.663490 -112.208365 101 30721ft 332kts
04-Oct-20 20:17 34.646961 -112.094527 101 29633ft 341kts
04-Oct-20 20:18 34.629962 -111.978324 101 28519ft 344kts
04-Oct-20 20:19 34.612721 -111.861307 101 27394ft 343kts
04-Oct-20 20:20 34.595318 -111.744012 101 26262ft 341kts
04-Oct-20 20:21 34.577840 -111.626996 101 25110ft 336kts
04-Oct-20 20:22 34.560436 -111.511248 101 24256ft 325kts
04-Oct-20 20:23 34.544096 -111.403339 101 24273ft 310kts
04-Oct-20 20:24 34.528252 -111.299313 101 24282ft 306kts
04-Oct-20 20:25 34.512485 -111.196376 101 24283ft 305kts
04-Oct-20 20:26 34.496641 -111.093562 101 24281ft 305kts
04-Oct-20 20:27 34.480722 -110.990883 101 24270ft 307kts
04-Oct-20 20:28 34.464580 -110.887326 100 24263ft 308kts
04-Oct-20 20:29 34.448187 -110.782656 100 24273ft 308kts
04-Oct-20 20:30 34.431707 -110.678145 100 24146ft 313kts
04-Oct-20 20:31 34.414469 -110.569380 100 22934ft 326kts
04-Oct-20 20:32 34.396863 -110.459034 100 21719ft 328kts
04-Oct-20 20:33 34.379174 -110.348840 101 20505ft 328kts
04-Oct-20 20:34 34.361823 -110.241415 101 19270ft 314kts
04-Oct-20 20:35 34.351264 -110.136851 79 18029ft 311kts
04-Oct-20 20:36 34.366882 -110.032459 79 16817ft 310kts
04-Oct-20 20:37 34.383131 -109.925051 79 15559ft 310kts
04-Oct-20 20:38 34.399189 -109.819767 79 14325ft 309kts
04-Oct-20 20:39 34.415231 -109.716003 79 13098ft 300kts
04-Oct-20 20:41 34.431172 -109.615520 79 11857ft 293kts
04-Oct-20 20:42 34.416704 -109.522509 120 10894ft 276kts
04-Oct-20 20:43 34.381677 -109.439952 118 10899ft 262kts
04-Oct-20 20:44 34.347454 -109.358940 118 10925ft 253kts
04-Oct-20 20:45 34.318406 -109.290297 119 10929ft 191kts
04-Oct-20 20:46 34.293856 -109.232433 119 10960ft 182kts
04-Oct-20 20:47 34.252899 -109.222540 209 10037ft 179kts
04-Oct-20 20:48 34.208423 -109.252191 209 8716ft 168kts
04-Oct-20 20:49 34.164830 -109.273025 204 7770ft 162kts
04-Oct-20 20:50 34.140831 -109.299014 223 7106ft 88kts
04-Oct-20 20:51 34.131947 -109.309269 223 7032ft 16kts
04-Oct-20 20:52 34.129865 -109.310529 43 7037ft 19kts
04-Oct-20 20:53 34.131560 -109.307681 43 7030ft 0kts
04-Oct-20 20:54 34.131560 -109.307681 43 7030ft 0kts
04-Oct-20 20:55 34.131560 -109.307681 43 7030ft 0kts
04-Oct-20 20:56 34.131560 -109.307681 43 7030ft 0kts
04-Oct-20 20:57 34.131560 -109.307681 43 7030ft 0kts
04-Oct-20 20:58 34.131560 -109.307681 43 7030ft 0kts
04-Oct-20 20:58 34.131560 -109.307681 43 7030ft 0kts
04-Oct-20 21:00 34.131560 -109.307681 43 7030ft 0kts
04-Oct-20 21:01 34.131560 -109.307681 43 7030ft 0kts

Navigation Log

Ident Type
Flight plan parsing failed, navigation log unavailable